Time;durP1;ratioP1;P1;durP2;ratioP2;P2;SDS_P1;SDS_P2;PMS_P1;PMS_P2;Temp;Humidity;BMP_temperature;BMP_pressure;BME280_temperature;BME280_humidity;BME280_pressure;Samples;Min_cycle;Max_cycle;Signal;HPM_P1;HPM_P2
2021/09/03 00:00:21;;;;;;;1999.90;999.90;;;;;;;12.29;54.12;101955.41;5027691;27;98343;-76
2021/09/03 00:02:49;;;;;;;1999.90;999.90;;;;;;;12.26;54.11;101960.66;5031832;27;96820;-76
2021/09/03 00:05:19;;;;;;;1999.90;999.90;;;;;;;12.25;54.00;101957.97;5028024;27;96888;-76
2021/09/03 00:07:49;;;;;;;1999.90;999.90;;;;;;;12.24;54.08;101966.84;5028458;27;99372;-76
2021/09/03 00:10:18;;;;;;;1999.90;999.90;;;;;;;12.22;54.00;101965.88;5045548;27;99281;-76
2021/09/03 00:12:46;;;;;;;1999.90;999.90;;;;;;;12.21;54.16;101961.38;5012237;27;96953;-75
2021/09/03 00:15:16;;;;;;;1999.90;999.90;;;;;;;12.20;54.09;101964.91;5028166;27;96771;-75
2021/09/03 00:17:44;;;;;;;1999.90;999.90;;;;;;;12.14;54.30;101950.44;5030877;27;97753;-76
2021/09/03 00:20:14;;;;;;;1999.90;999.90;;;;;;;12.12;54.11;101952.19;5028716;27;99286;-76
2021/09/03 00:22:42;;;;;;;1999.90;999.90;;;;;;;12.10;54.09;101944.97;5013906;27;97195;-76
2021/09/03 00:25:13;;;;;;;1999.90;999.90;;;;;;;12.10;54.25;101950.31;5044864;27;97047;-76
2021/09/03 00:27:41;;;;;;;1999.90;999.90;;;;;;;12.06;54.13;101945.72;5016498;27;99265;-75
2021/09/03 00:30:10;;;;;;;1999.90;999.90;;;;;;;12.06;54.13;101943.06;5043090;27;100914;-75
2021/09/03 00:32:38;;;;;;;1999.90;999.90;;;;;;;12.03;54.14;101937.63;5032469;27;96741;-75
2021/09/03 00:35:07;;;;;;;1999.90;999.90;;;;;;;12.01;54.39;101940.25;5032523;27;96913;-75
2021/09/03 00:37:36;;;;;;;1999.90;999.90;;;;;;;11.99;54.17;101931.28;5031426;27;100967;-76
2021/09/03 00:40:04;;;;;;;1999.90;999.90;;;;;;;11.95;54.39;101932.03;5035358;27;99692;-75
2021/09/03 00:42:33;;;;;;;1999.90;999.90;;;;;;;11.93;54.50;101936.41;5016495;27;97089;-74
2021/09/03 00:45:02;;;;;;;1999.90;999.90;;;;;;;11.90;54.53;101930.97;5032022;27;97182;-76
2021/09/03 00:47:30;;;;;;;1999.90;999.90;;;;;;;11.87;54.55;101925.53;5017184;27;99620;-76
2021/09/03 00:49:58;;;;;;;1999.90;999.90;;;;;;;11.86;54.33;101926.38;5033377;27;99687;-74
2021/09/03 00:52:26;;;;;;;1999.90;999.90;;;;;;;11.84;54.54;101919.19;5034233;27;97315;-76
2021/09/03 00:54:58;;;;;;;1999.90;999.90;;;;;;;11.81;54.35;101921.75;5034908;27;97180;-75
2021/09/03 00:57:26;;;;;;;1999.90;999.90;;;;;;;11.80;54.56;101923.50;5034239;27;100449;-76
2021/09/03 00:59:56;;;;;;;1999.90;999.90;;;;;;;11.79;54.36;101920.78;5014597;27;99563;-76
2021/09/03 01:02:24;;;;;;;1999.90;999.90;;;;;;;11.76;54.41;101921.56;5031669;27;97355;-76
2021/09/03 01:04:52;;;;;;;1999.90;999.90;;;;;;;11.73;54.35;101916.16;5030267;27;96790;-75
2021/09/03 01:07:20;;;;;;;1999.90;999.90;;;;;;;11.71;54.48;101912.53;5028183;27;99282;-76
2021/09/03 01:09:48;;;;;;;1999.90;999.90;;;;;;;11.69;54.28;101908.91;5012256;27;100179;-75
2021/09/03 01:12:17;;;;;;;1999.90;999.90;;;;;;;11.66;54.48;101918.56;5029721;27;96828;-76
2021/09/03 01:14:45;;;;;;;1999.90;999.90;;;;;;;11.64;54.46;101907.84;5013303;27;96837;-76
2021/09/03 01:17:14;;;;;;;1999.90;999.90;;;;;;;11.62;54.41;101906.88;5030225;27;100555;-76
2021/09/03 01:19:42;;;;;;;1999.90;999.90;;;;;;;11.61;54.42;101905.06;5032070;27;97525;-76
2021/09/03 01:22:12;;;;;;;1999.90;999.90;;;;;;;11.59;54.73;101909.44;5032528;27;96749;-74
2021/09/03 01:24:39;;;;;;;1999.90;999.90;;;;;;;11.58;54.78;101910.28;5033653;27;96722;-76
2021/09/03 01:27:07;;;;;;;1999.90;999.90;;;;;;;11.57;54.64;101911.16;5032861;27;100447;-76
2021/09/03 01:29:35;;;;;;;1999.90;999.90;;;;;;;11.56;54.69;101916.44;5030949;27;97818;-75
2021/09/03 01:32:03;;;;;;;1999.90;999.90;;;;;;;11.54;54.87;101908.38;5050303;27;96817;-75
2021/09/03 01:34:31;;;;;;;1999.90;999.90;;;;;;;11.52;54.70;101906.50;5034090;27;96905;-75
2021/09/03 01:36:59;;;;;;;1999.90;999.90;;;;;;;11.51;54.57;101905.59;5031506;27;99742;-75
2021/09/03 01:39:28;;;;;;;1999.90;999.90;;;;;;;11.50;54.55;101911.78;5049629;27;97570;-75
2021/09/03 01:41:56;;;;;;;1999.90;999.90;;;;;;;11.47;54.57;101909.00;5034056;27;97229;-76
2021/09/03 01:44:24;;;;;;;1999.90;999.90;;;;;;;11.48;54.71;101907.25;5031704;27;97194;-76
2021/09/03 01:46:52;;;;;;;1999.90;999.90;;;;;;;11.47;54.62;101911.66;5014473;27;100489;-75
2021/09/03 01:49:20;;;;;;;1999.90;999.90;;;;;;;11.46;54.79;101904.53;5032139;27;99675;-75
2021/09/03 01:51:48;;;;;;;1999.90;999.90;;;;;;;11.44;54.75;101907.97;5033195;27;96981;-74
2021/09/03 01:54:15;;;;;;;1999.90;999.90;;;;;;;11.42;54.52;101902.59;5014883;27;97718;-76
2021/09/03 01:56:45;;;;;;;1999.90;999.90;;;;;;;11.41;54.70;101899.88;5013949;27;99850;-75
2021/09/03 01:59:13;;;;;;;1999.90;999.90;;;;;;;11.38;54.78;101902.47;5031957;27;100307;-75
2021/09/03 02:01:40;;;;;;;1999.90;999.90;;;;;;;11.35;54.69;101892.59;5028645;27;96825;-76
2021/09/03 02:04:08;;;;;;;1999.90;999.90;;;;;;;11.33;54.69;101886.28;5032844;27;97026;-74
2021/09/03 02:06:36;;;;;;;1999.90;999.90;;;;;;;11.30;54.82;101880.81;5015195;27;99549;-75
2021/09/03 02:09:04;;;;;;;1999.90;999.90;;;;;;;11.29;54.83;101884.31;5031717;27;99162;-76
2021/09/03 02:11:32;;;;;;;1999.90;999.90;;;;;;;11.28;54.79;101884.28;5032412;27;96882;-76
2021/09/03 02:14:01;;;;;;;1999.90;999.90;;;;;;;11.28;54.73;101882.53;5032525;27;97191;-75
2021/09/03 02:16:30;;;;;;;1999.90;999.90;;;;;;;11.27;54.71;101875.38;5030737;27;100801;-75
2021/09/03 02:18:58;;;;;;;1999.90;999.90;;;;;;;11.25;54.80;101877.06;5029164;27;99289;-75
2021/09/03 02:21:26;;;;;;;1999.90;999.90;;;;;;;11.20;54.78;101879.59;5014663;27;96972;-76
2021/09/03 02:23:54;;;;;;;1999.90;999.90;;;;;;;11.19;54.91;101883.13;5033387;27;96788;-74
2021/09/03 02:26:22;;;;;;;1999.90;999.90;;;;;;;11.17;54.82;101874.16;5013319;27;100108;-74
2021/09/03 02:28:50;;;;;;;1999.90;999.90;;;;;;;11.16;55.00;101871.41;5014031;27;99164;-76
2021/09/03 02:31:19;;;;;;;1999.90;999.90;;;;;;;11.14;54.98;101875.81;5030431;27;96943;-74
2021/09/03 02:33:47;;;;;;;1999.90;999.90;;;;;;;11.11;54.90;101868.59;5033276;27;97221;-76
2021/09/03 02:36:15;;;;;;;1999.90;999.90;;;;;;;11.11;55.04;101881.91;5028016;27;98000;-76
2021/09/03 02:38:44;;;;;;;1999.90;999.90;;;;;;;11.11;55.11;101875.69;5032806;27;98361;-75
2021/09/03 02:41:12;;;;;;;1999.90;999.90;;;;;;;11.06;54.92;101862.22;5030708;27;96883;-75
2021/09/03 02:43:40;;;;;;;1999.90;999.90;;;;;;;11.05;54.97;101867.44;5010789;27;96865;-76
2021/09/03 02:46:08;;;;;;;1999.90;999.90;;;;;;;11.04;55.12;101861.25;5032643;27;98785;-76
2021/09/03 02:48:37;;;;;;;1999.90;999.90;;;;;;;11.04;54.90;101860.31;5048863;27;98926;-75
2021/09/03 02:51:05;;;;;;;1999.90;999.90;;;;;;;11.01;55.01;101855.78;5030710;27;96767;-75
2021/09/03 02:53:33;;;;;;;1999.90;999.90;;;;;;;10.99;54.83;101853.94;5013082;27;97091;-76
2021/09/03 02:56:01;;;;;;;1999.90;999.90;;;;;;;10.98;55.01;101854.75;5011978;27;100702;-76
2021/09/03 02:58:28;;;;;;;1999.90;999.90;;;;;;;10.95;55.10;101852.00;5048028;27;98950;-76
2021/09/03 03:00:56;;;;;;;1999.90;999.90;;;;;;;10.94;55.02;101845.75;5011739;27;96705;-74
2021/09/03 03:03:25;;;;;;;1999.90;999.90;;;;;;;10.92;55.18;101851.91;5013745;27;96875;-75
2021/09/03 03:05:54;;;;;;;1999.90;999.90;;;;;;;10.90;55.05;101845.59;5024112;27;99687;-75
2021/09/03 03:08:22;;;;;;;1999.90;999.90;;;;;;;10.86;55.11;101836.59;5011211;27;100479;-74
2021/09/03 03:10:50;;;;;;;1999.90;999.90;;;;;;;10.85;55.04;101842.75;5029591;27;97456;-75
2021/09/03 03:13:23;;;;;;;1999.90;999.90;;;;;;;10.83;54.96;101843.56;5009868;27;96871;-74
2021/09/03 03:15:52;;;;;;;1999.90;999.90;;;;;;;10.82;55.05;101841.75;5027509;27;99122;-75
2021/09/03 03:18:20;;;;;;;1999.90;999.90;;;;;;;10.78;55.10;101837.16;5029558;27;99863;-76
2021/09/03 03:20:49;;;;;;;1999.90;999.90;;;;;;;10.79;55.02;101834.56;5031165;27;96911;-74
2021/09/03 03:23:18;;;;;;;1999.90;999.90;;;;;;;10.76;55.04;101836.19;5020796;27;96858;-75
2021/09/03 03:25:47;;;;;;;1999.90;999.90;;;;;;;10.74;55.11;101825.47;5032071;27;99520;-75
2021/09/03 03:28:15;;;;;;;1999.90;999.90;;;;;;;10.72;55.03;101827.19;5029057;27;99846;-76
2021/09/03 03:30:43;;;;;;;1999.90;999.90;;;;;;;10.70;55.02;101830.66;5030172;27;96944;-76
2021/09/03 03:33:11;;;;;;;1999.90;999.90;;;;;;;10.67;55.16;101817.22;5014704;27;96873;-75
2021/09/03 03:35:39;;;;;;;1999.90;999.90;;;;;;;10.65;55.06;101825.13;5030103;27;100932;-76
2021/09/03 03:38:07;;;;;;;1999.90;999.90;;;;;;;10.64;55.26;101820.69;5029837;27;99794;-75
2021/09/03 03:40:36;;;;;;;1999.90;999.90;;;;;;;10.62;55.04;101819.72;5028361;27;96867;-76
2021/09/03 03:43:04;;;;;;;1999.90;999.90;;;;;;;10.61;55.03;101817.88;5033316;27;96849;-76
2021/09/03 03:45:32;;;;;;;1999.90;999.90;;;;;;;10.61;55.18;101817.00;5032596;27;100459;-76
2021/09/03 03:47:59;;;;;;;1999.90;999.90;;;;;;;10.57;55.25;101808.00;5030827;27;98928;-76
2021/09/03 03:50:27;;;;;;;1999.90;999.90;;;;;;;10.57;55.08;101807.09;5028974;27;96736;-75
2021/09/03 03:52:55;;;;;;;1999.90;999.90;;;;;;;10.54;55.26;101810.53;5032060;27;96954;-75
2021/09/03 03:55:24;;;;;;;1999.90;999.90;;;;;;;10.53;55.11;101799.81;5012500;27;99345;-75
2021/09/03 03:57:53;;;;;;;1999.90;999.90;;;;;;;10.53;55.13;101805.16;5030770;27;98777;-75
2021/09/03 04:00:21;;;;;;;1999.90;999.90;;;;;;;10.51;55.04;101801.53;5010291;27;96828;-76
2021/09/03 04:02:49;;;;;;;1999.90;999.90;;;;;;;10.48;55.15;101805.00;5033683;27;97087;-76
2021/09/03 04:05:18;;;;;;;1999.90;999.90;;;;;;;10.47;55.17;101799.59;5042980;27;97111;-75
2021/09/03 04:07:45;;;;;;;1999.90;999.90;;;;;;;10.44;55.25;101800.41;5018313;27;99353;-76
2021/09/03 04:10:13;;;;;;;1999.90;999.90;;;;;;;10.44;55.31;101805.72;5022932;27;96943;-76
2021/09/03 04:12:41;;;;;;;1999.90;999.90;;;;;;;10.44;55.14;101802.16;5034648;27;96824;-75
2021/09/03 04:15:11;;;;;;;1999.90;999.90;;;;;;;10.42;55.22;101802.09;5037315;27;97785;-76
2021/09/03 04:17:39;;;;;;;1999.90;999.90;;;;;;;10.39;55.20;101795.72;5037903;27;99776;-76
2021/09/03 04:20:08;;;;;;;1999.90;999.90;;;;;;;10.38;55.27;101792.13;5019529;27;97442;-75
2021/09/03 04:22:36;;;;;;;1999.90;999.90;;;;;;;10.37;55.15;101808.97;5019700;27;98478;-74
2021/09/03 04:25:05;;;;;;;1999.90;999.90;;;;;;;10.34;55.11;101802.63;5017241;27;99749;-74
2021/09/03 04:27:34;;;;;;;1999.90;999.90;;;;;;;10.31;55.34;101803.41;5034698;27;99901;-75
2021/09/03 04:30:02;;;;;;;1999.90;999.90;;;;;;;10.29;55.13;101799.78;5034788;27;97111;-76
2021/09/03 04:32:32;;;;;;;1999.90;999.90;;;;;;;10.27;55.29;101798.81;5034540;27;97056;-76
2021/09/03 04:35:00;;;;;;;1999.90;999.90;;;;;;;10.25;55.41;101794.28;5033528;27;99302;-74
2021/09/03 04:37:28;;;;;;;1999.90;999.90;;;;;;;10.25;55.38;101794.28;5032893;27;99293;-76
2021/09/03 04:39:56;;;;;;;1999.90;999.90;;;;;;;10.23;55.41;101788.88;5035034;27;97035;-74
2021/09/03 04:42:24;;;;;;;1999.90;999.90;;;;;;;10.23;55.34;101788.00;5032757;27;96899;-75
2021/09/03 04:44:52;;;;;;;1999.90;999.90;;;;;;;10.23;55.29;101789.81;5035076;27;98697;-75
2021/09/03 04:47:21;;;;;;;1999.90;999.90;;;;;;;10.23;55.23;101788.00;5030284;27;97276;-74
2021/09/03 04:49:50;;;;;;;1999.90;999.90;;;;;;;10.21;55.43;101790.56;5050056;27;97209;-75
2021/09/03 04:52:18;;;;;;;1999.90;999.90;;;;;;;10.21;55.32;101793.25;5033111;27;96853;-75
2021/09/03 04:54:46;;;;;;;1999.90;999.90;;;;;;;10.19;55.28;101779.88;5016616;27;99956;-75
2021/09/03 04:57:13;;;;;;;1999.90;999.90;;;;;;;10.19;55.33;101782.53;5015799;27;99455;-75
2021/09/03 04:59:41;;;;;;;1999.90;999.90;;;;;;;10.16;55.16;101777.13;5022870;27;96868;-76
2021/09/03 05:02:09;;;;;;;1999.90;999.90;;;;;;;10.14;55.37;101773.50;5050408;27;98710;-76
2021/09/03 05:04:37;;;;;;;1999.90;999.90;;;;;;;10.14;55.42;101781.47;5037320;27;99244;-78
2021/09/03 05:07:07;;;;;;;1999.90;999.90;;;;;;;10.15;55.28;101782.38;5035908;27;100183;-77
2021/09/03 05:09:35;;;;;;;1999.90;999.90;;;;;;;10.13;55.41;101777.00;5029855;27;96950;-77
2021/09/03 05:12:03;;;;;;;1999.90;999.90;;;;;;;10.13;55.24;101774.34;5034831;27;97072;-78
2021/09/03 05:14:31;;;;;;;1999.90;999.90;;;;;;;10.14;55.48;101773.50;5030790;27;99393;-78
2021/09/03 05:16:59;;;;;;;1999.90;999.90;;;;;;;10.15;55.41;101775.31;5043323;27;99574;-78
2021/09/03 05:19:28;;;;;;;1999.90;999.90;;;;;;;10.15;55.31;101772.66;5038420;27;97527;-78
2021/09/03 05:21:56;;;;;;;1999.90;999.90;;;;;;;10.16;55.51;101766.47;5034970;27;96815;-78
2021/09/03 05:24:26;;;;;;;1999.90;999.90;;;;;;;10.18;55.36;101772.78;5032507;27;99747;-77
2021/09/03 05:26:54;;;;;;;1999.90;999.90;;;;;;;10.19;55.43;101771.03;5040640;27;99561;-77
2021/09/03 05:29:21;;;;;;;1999.90;999.90;;;;;;;10.20;55.34;101763.09;5016432;27;96952;-78
2021/09/03 05:31:49;;;;;;;1999.90;999.90;;;;;;;10.23;55.39;101758.75;5032822;27;96890;-77
2021/09/03 05:34:17;;;;;;;1999.90;999.90;;;;;;;10.24;55.37;101769.44;5023968;27;99265;-77
2021/09/03 05:36:45;;;;;;;1999.90;999.90;;;;;;;10.23;55.47;101763.19;5033083;27;99269;-77
2021/09/03 05:39:13;;;;;;;1999.90;999.90;;;;;;;10.25;55.48;101759.72;5035013;27;97517;-78
2021/09/03 05:41:42;;;;;;;1999.90;999.90;;;;;;;10.26;55.24;101756.19;5036127;27;96963;-77
2021/09/03 05:44:10;;;;;;;1999.90;999.90;;;;;;;10.27;55.46;101760.66;5016628;27;99979;-77
2021/09/03 05:46:38;;;;;;;1999.90;999.90;;;;;;;10.28;55.49;101755.41;5033898;27;97779;-77
2021/09/03 05:49:06;;;;;;;1999.90;999.90;;;;;;;10.30;55.43;101755.47;5018302;27;96842;-77
2021/09/03 05:51:34;;;;;;;1999.90;999.90;;;;;;;10.32;55.47;101754.66;5014785;27;96719;-77
2021/09/03 05:54:07;;;;;;;1999.90;999.90;;;;;;;10.34;55.52;101760.06;5031529;27;99171;-78
2021/09/03 05:56:35;;;;;;;1999.90;999.90;;;;;;;10.38;55.50;101754.88;5017236;27;100329;-77
2021/09/03 05:59:05;;;;;;;1999.90;999.90;;;;;;;10.41;55.36;101751.44;5032926;27;97022;-78
2021/09/03 06:01:33;;;;;;;1999.90;999.90;;;;;;;10.43;55.40;101750.66;5031481;27;96910;-77
2021/09/03 06:04:02;;;;;;;1999.90;999.90;;;;;;;10.48;55.52;101751.78;5033319;27;99852;-77
2021/09/03 06:06:30;;;;;;;1999.90;999.90;;;;;;;10.51;55.48;101750.97;5033372;27;98889;-78
2021/09/03 06:08:58;;;;;;;1999.90;999.90;;;;;;;10.52;55.45;101748.34;5014374;27;96944;-78
2021/09/03 06:11:26;;;;;;;1999.90;999.90;;;;;;;10.54;55.30;101749.31;5033639;27;97170;-77
2021/09/03 06:13:54;;;;;;;1999.90;999.90;;;;;;;10.55;55.37;101750.22;5032863;27;99812;-78
2021/09/03 06:16:24;;;;;;;1999.90;999.90;;;;;;;10.57;55.54;101748.53;5032853;27;99603;-78
2021/09/03 06:18:52;;;;;;;1999.90;999.90;;;;;;;10.60;55.37;101749.53;5031740;27;96948;-78
2021/09/03 06:21:20;;;;;;;1999.90;999.90;;;;;;;10.63;55.54;101748.75;5015237;27;96885;-77
2021/09/03 06:23:48;;;;;;;1999.90;999.90;;;;;;;10.66;55.28;101751.53;5032608;27;100401;-78
2021/09/03 06:26:16;;;;;;;1999.90;999.90;;;;;;;10.71;55.53;101752.59;5015118;27;100669;-79
2021/09/03 06:28:44;;;;;;;1999.90;999.90;;;;;;;10.76;55.57;101745.66;5030828;27;96852;-78
2021/09/03 06:31:12;;;;;;;1999.90;999.90;;;;;;;10.80;55.21;101748.50;5032616;27;97112;-78
2021/09/03 06:33:41;;;;;;;1999.90;999.90;;;;;;;10.85;55.50;101738.91;5031698;27;97824;-78
2021/09/03 06:36:09;;;;;;;1999.90;999.90;;;;;;;10.89;55.46;101742.59;5025062;27;98730;-78
2021/09/03 06:38:37;;;;;;;1999.90;999.90;;;;;;;10.94;55.52;101741.00;5034752;27;96946;-78
2021/09/03 06:41:05;;;;;;;1999.90;999.90;;;;;;;10.97;55.47;101731.38;5031508;27;97415;-78
2021/09/03 06:43:33;;;;;;;1999.90;999.90;;;;;;;11.04;55.59;101729.81;5032626;27;97735;-79
2021/09/03 06:46:01;;;;;;;1999.90;999.90;;;;;;;11.08;55.51;101729.06;5033426;27;99444;-78
2021/09/03 06:48:29;;;;;;;1999.90;999.90;;;;;;;11.11;55.53;101724.75;5015006;27;96834;-78
2021/09/03 06:50:58;;;;;;;1999.90;999.90;;;;;;;11.17;55.46;101721.38;5041993;27;97802;-78
2021/09/03 06:53:26;;;;;;;1999.90;999.90;;;;;;;11.21;55.41;101720.63;5014913;27;100549;-78
2021/09/03 06:55:54;;;;;;;1999.90;999.90;;;;;;;11.26;55.58;101719.03;5014898;27;99313;-78
2021/09/03 06:58:23;;;;;;;1999.90;999.90;;;;;;;11.30;55.48;101723.59;5033181;27;96789;-78
2021/09/03 07:00:50;;;;;;;1999.90;999.90;;;;;;;11.37;55.52;101722.97;5034452;27;97193;-78
2021/09/03 07:03:19;;;;;;;1999.90;999.90;;;;;;;11.41;55.57;101719.56;5030005;27;100565;-78
2021/09/03 07:05:47;;;;;;;1999.90;999.90;;;;;;;11.43;55.57;101728.53;5035643;27;97830;-78
2021/09/03 07:08:16;;;;;;;1999.90;999.90;;;;;;;11.46;55.72;101727.69;5025059;27;97281;-79
2021/09/03 07:10:44;;;;;;;1999.90;999.90;;;;;;;11.51;55.57;101720.75;5013282;27;97328;-78
2021/09/03 07:13:14;;;;;;;1999.90;999.90;;;;;;;11.55;55.64;101709.34;5030291;27;99410;-78
2021/09/03 07:15:42;;;;;;;1999.90;999.90;;;;;;;11.58;55.58;101718.34;5029239;27;97933;-78
2021/09/03 07:18:10;;;;;;;1999.90;999.90;;;;;;;11.63;55.76;101719.41;5031849;27;96844;-78
2021/09/03 07:20:38;;;;;;;1999.90;999.90;;;;;;;11.66;55.69;101711.50;5015830;27;98848;-78
2021/09/03 07:23:06;;;;;;;1999.90;999.90;;;;;;;11.69;55.30;101713.38;5016013;27;99210;-79
2021/09/03 07:25:35;;;;;;;1999.90;999.90;;;;;;;11.75;55.63;101714.44;5029751;27;97730;-78
2021/09/03 07:28:03;;;;;;;1999.90;999.90;;;;;;;11.80;55.53;101702.16;5016447;27;96902;-78
2021/09/03 07:30:31;;;;;;;1999.90;999.90;;;;;;;11.84;55.72;101701.38;5032288;27;96888;-78
2021/09/03 07:32:59;;;;;;;1999.90;999.90;;;;;;;11.91;55.50;101703.38;5033629;27;101104;-79
2021/09/03 07:35:28;;;;;;;1999.90;999.90;;;;;;;11.97;55.38;101703.56;5030078;27;97746;-79
2021/09/03 07:37:57;;;;;;;1999.90;999.90;;;;;;;12.04;55.53;101702.91;5033007;27;96751;-79
2021/09/03 07:40:26;;;;;;;1999.90;999.90;;;;;;;12.11;55.39;101706.63;5032807;27;96926;-79
2021/09/03 07:42:56;;;;;;;1999.90;999.90;;;;;;;12.16;55.29;101711.25;5030931;27;99493;-79
2021/09/03 07:45:26;;;;;;;1999.90;999.90;;;;;;;12.22;55.13;101710.56;5031604;27;97739;-79
2021/09/03 07:47:54;;;;;;;1999.90;999.90;;;;;;;12.26;55.22;101706.22;5035163;27;96784;-79
2021/09/03 07:50:22;;;;;;;1999.90;999.90;;;;;;;12.33;55.05;101702.88;5033963;27;97061;-79
2021/09/03 07:52:50;;;;;;;1999.90;999.90;;;;;;;12.38;55.18;101699.50;5031918;27;97680;-79
2021/09/03 07:55:38;;;;;;;1999.90;999.90;;;;;;;12.43;55.03;101695.19;5032330;27;99194;-79
2021/09/03 07:58:08;;;;;;;1999.90;999.90;;;;;;;12.48;55.23;101692.63;5030503;27;96861;-80
2021/09/03 08:00:37;;;;;;;1999.90;999.90;;;;;;;12.54;54.96;101687.47;5033020;27;96841;-79
2021/09/03 08:03:05;;;;;;;1999.90;999.90;;;;;;;12.61;55.01;101686.75;5016569;27;99665;-79
2021/09/03 08:05:33;;;;;;;1999.90;999.90;;;;;;;12.69;55.00;101690.56;5015672;27;99314;-80
2021/09/03 08:08:03;;;;;;;1999.90;999.90;;;;;;;12.74;54.97;101691.56;5033352;27;96835;-81
2021/09/03 08:10:33;;;;;;;1999.90;999.90;;;;;;;12.81;55.01;101693.53;5030458;27;96955;-79
2021/09/03 08:13:01;;;;;;;1999.90;999.90;;;;;;;12.90;54.96;101689.34;5017901;27;99337;-79
2021/09/03 08:15:32;;;;;;;1999.90;999.90;;;;;;;12.98;55.04;101692.22;5035383;27;97971;-79
2021/09/03 08:18:01;;;;;;;1999.90;999.90;;;;;;;13.04;54.79;101693.31;5033449;27;96782;-79
2021/09/03 08:20:29;;;;;;;1999.90;999.90;;;;;;;13.11;54.66;101679.22;5012305;27;96825;-79
2021/09/03 08:22:57;;;;;;;1999.90;999.90;;;;;;;13.16;54.70;101682.03;5032815;27;97517;-79
2021/09/03 08:25:25;;;;;;;1999.90;999.90;;;;;;;13.22;54.48;101676.84;5014431;27;99183;-79
2021/09/03 08:27:53;;;;;;;1999.90;999.90;;;;;;;13.32;54.52;101677.94;5030060;27;97496;-79
2021/09/03 08:30:22;;;;;;;1999.90;999.90;;;;;;;13.38;54.48;101676.34;5032931;27;96949;-79
2021/09/03 08:32:51;;;;;;;1999.90;999.90;;;;;;;13.49;54.27;101681.94;5031840;27;98738;-79
2021/09/03 08:35:19;;;;;;;1999.90;999.90;;;;;;;13.56;54.24;101673.19;5032893;27;99260;-79
2021/09/03 08:37:51;;;;;;;1999.90;999.90;;;;;;;13.64;54.17;101675.16;5040214;27;96917;-80
2021/09/03 08:40:19;;;;;;;1999.90;999.90;;;;;;;13.70;54.15;101677.97;5018005;27;96952;-79
2021/09/03 08:42:47;;;;;;;1999.90;999.90;;;;;;;13.76;54.10;101683.47;5032253;27;97868;-79
2021/09/03 08:45:15;;;;;;;1999.90;999.90;;;;;;;13.83;53.78;101687.22;5028995;27;97997;-79
2021/09/03 08:47:45;;;;;;;1999.90;999.90;;;;;;;13.87;53.76;101681.97;5016599;27;96896;-79
2021/09/03 08:50:16;;;;;;;1999.90;999.90;;;;;;;13.91;53.70;101682.94;5035649;27;97557;-79
2021/09/03 08:52:47;;;;;;;1999.90;999.90;;;;;;;13.94;53.55;101678.56;5032624;27;99370;-79
2021/09/03 08:55:17;;;;;;;1999.90;999.90;;;;;;;13.99;53.58;101686.66;5036367;27;99921;-79
2021/09/03 08:57:45;;;;;;;1999.90;999.90;;;;;;;14.00;53.58;101684.06;5039176;27;96718;-80
2021/09/03 09:00:17;;;;;;;1999.90;999.90;;;;;;;14.03;53.45;101689.47;5036371;27;96936;-79
2021/09/03 09:03:04;;;;;;;1999.90;999.90;;;;;;;14.07;53.60;101677.94;5033091;27;99658;-79
2021/09/03 09:05:47;;;;;;;1999.90;999.90;;;;;;;14.13;53.43;101671.81;5019473;27;100733;-79
2021/09/03 09:08:16;;;;;;;1999.90;999.90;;;;;;;14.17;53.16;101677.25;5029425;27;96848;-79
2021/09/03 09:10:52;;;;;;;1999.90;999.90;;;;;;;14.24;53.08;101680.06;5034511;27;97657;-79
2021/09/03 09:13:22;;;;;;;1999.90;999.90;;;;;;;14.31;53.27;101673.97;5024625;27;100609;-79
2021/09/03 09:16:09;;;;;;;1999.90;999.90;;;;;;;14.37;53.42;101668.72;5034869;27;98972;-79
2021/09/03 09:18:40;;;;;;;1999.90;999.90;;;;;;;14.43;53.10;101668.84;5031120;27;96765;-80
2021/09/03 09:21:15;;;;;;;1999.90;999.90;;;;;;;14.47;52.67;101666.25;5034574;27;96736;-79
2021/09/03 09:23:45;;;;;;;1999.90;999.90;;;;;;;14.52;52.64;101659.22;5033469;27;100113;-79
2021/09/03 09:26:14;;;;;;;1999.90;999.90;;;;;;;14.59;52.76;101654.91;5034155;27;100499;-79
2021/09/03 09:28:42;;;;;;;1999.90;999.90;;;;;;;14.62;52.52;101660.31;5031919;27;97191;-79
2021/09/03 09:31:10;;;;;;;1999.90;999.90;;;;;;;14.68;52.49;101657.75;5034529;27;96773;-79
2021/09/03 09:33:44;;;;;;;1999.90;999.90;;;;;;;14.71;52.42;101649.78;5031934;27;98010;-78
2021/09/03 09:36:15;;;;;;;1999.90;999.90;;;;;;;14.75;52.28;101641.84;5032357;27;99545;-79
2021/09/03 09:38:46;;;;;;;1999.90;999.90;;;;;;;14.80;52.54;101641.91;5032638;27;96768;-79
2021/09/03 09:41:15;;;;;;;1999.90;999.90;;;;;;;14.83;52.35;101639.25;5032660;27;97282;-79
2021/09/03 09:43:44;;;;;;;1999.90;999.90;;;;;;;14.85;52.06;101638.41;5014569;27;99859;-78
2021/09/03 09:46:15;;;;;;;1999.90;999.90;;;;;;;14.89;52.18;101640.28;5034851;27;99492;-79
2021/09/03 09:49:12;;;;;;;1999.90;999.90;;;;;;;14.90;51.69;101635.84;5034342;27;96727;-79
2021/09/03 09:51:48;;;;;;;1999.90;999.90;;;;;;;14.95;51.85;101634.13;5031920;27;96920;-79
2021/09/03 09:54:19;;;;;;;1999.90;999.90;;;;;;;15.01;51.76;101637.78;5032837;27;100414;-79
2021/09/03 09:56:50;;;;;;;1999.90;999.90;;;;;;;15.06;51.89;101637.88;5033970;27;99272;-79
2021/09/03 09:59:18;;;;;;;1999.90;999.90;;;;;;;15.12;51.52;101632.59;5049091;27;96810;-79
2021/09/03 10:01:48;;;;;;;1999.90;999.90;;;;;;;15.14;51.76;101628.16;5034372;27;96809;-79
2021/09/03 10:04:19;;;;;;;1999.90;999.90;;;;;;;15.19;51.82;101623.81;5033917;27;99135;-80
2021/09/03 10:06:49;;;;;;;1999.90;999.90;;;;;;;15.24;51.40;101631.91;5033276;27;97472;-79
2021/09/03 10:09:20;;;;;;;1999.90;999.90;;;;;;;15.28;51.54;101623.94;5026587;27;96841;-79
2021/09/03 10:11:49;;;;;;;1999.90;999.90;;;;;;;15.32;51.25;101620.44;5015362;27;96774;-79
2021/09/03 10:14:20;;;;;;;1999.90;999.90;;;;;;;15.35;51.23;101619.59;5032440;27;99839;-79
2021/09/03 10:16:49;;;;;;;1999.90;999.90;;;;;;;15.39;51.28;101617.00;5025737;27;100544;-80
2021/09/03 10:19:21;;;;;;;1999.90;999.90;;;;;;;15.44;50.98;101620.63;5034923;27;97739;-79
2021/09/03 10:21:54;;;;;;;1999.90;999.90;;;;;;;15.49;51.03;101620.69;5015341;27;96804;-79
2021/09/03 10:24:25;;;;;;;1999.90;999.90;;;;;;;15.53;50.61;101626.13;5037919;27;99500;-80
2021/09/03 10:26:55;;;;;;;1999.90;999.90;;;;;;;15.57;50.56;101611.88;5034993;27;99216;-79
2021/09/03 10:29:32;;;;;;;1999.90;999.90;;;;;;;15.58;50.60;101613.69;5033272;27;96861;-80
2021/09/03 10:32:19;;;;;;;1999.90;999.90;;;;;;;15.57;49.24;101606.53;5035521;27;96831;-79
2021/09/03 10:34:54;;;;;;;1999.90;999.90;;;;;;;15.62;50.65;101610.16;5053545;27;98768;-80
2021/09/03 10:37:32;;;;;;;1999.90;999.90;;;;;;;15.67;50.12;101611.13;5036131;27;98967;-79
2021/09/03 10:40:21;;;;;;;1999.90;999.90;;;;;;;15.73;50.29;101607.63;5025959;27;96770;-80
2021/09/03 10:42:53;;;;;;;1999.90;999.90;;;;;;;15.79;50.54;101602.34;5020292;27;96747;-79
2021/09/03 10:45:30;;;;;;;1999.90;999.90;;;;;;;15.84;50.35;101598.84;5014807;27;99310;-80
2021/09/03 10:48:18;;;;;;;1999.90;999.90;;;;;;;15.87;50.08;101593.50;5033313;27;100380;-79
2021/09/03 10:50:53;;;;;;;1999.90;999.90;;;;;;;15.94;49.84;101594.47;5033741;27;97308;-77
2021/09/03 10:53:28;;;;;;;1999.90;999.90;;;;;;;15.97;49.71;101591.81;5018446;27;96782;-78
2021/09/03 10:56:01;;;;;;;1999.90;999.90;;;;;;;15.99;49.65;101590.97;5017599;27;99429;-78